createdAt,value
2018-06-03T00:02:11.628Z,10.53
2018-06-03T00:04:39.954Z,10.27
2018-06-03T00:07:08.243Z,9.83
2018-06-03T00:09:36.611Z,10.17
2018-06-03T00:12:04.886Z,10.13
2018-06-03T00:14:33.146Z,9.70
2018-06-03T00:17:01.421Z,9.87
2018-06-03T00:19:29.688Z,10.80
2018-06-03T00:21:57.963Z,10.80
2018-06-03T00:24:26.366Z,10.17
2018-06-03T00:26:54.644Z,10.70
2018-06-03T00:29:22.874Z,10.20
2018-06-03T00:31:51.124Z,9.00
2018-06-03T00:34:19.403Z,9.43
2018-06-03T00:36:47.722Z,9.10
2018-06-03T00:39:15.951Z,9.57
2018-06-03T00:41:44.297Z,8.17
2018-06-03T00:44:12.777Z,8.40
2018-06-03T00:46:41.018Z,7.90
2018-06-03T00:49:09.433Z,7.57
2018-06-03T00:51:37.667Z,8.70
2018-06-03T00:54:05.885Z,8.37
2018-06-03T00:56:40.406Z,7.63
2018-06-03T00:59:08.655Z,7.60
2018-06-03T01:01:37.032Z,7.73
2018-06-03T01:04:05.261Z,6.70
2018-06-03T01:06:33.708Z,8.00
2018-06-03T01:09:02.064Z,8.07
2018-06-03T01:11:30.285Z,8.00
2018-06-03T01:13:58.747Z,7.87
2018-06-03T01:16:27.019Z,8.37
2018-06-03T01:18:55.272Z,7.80
2018-06-03T01:21:23.517Z,8.07
2018-06-03T01:23:51.950Z,7.90
2018-06-03T01:26:20.394Z,8.10
2018-06-03T01:28:48.707Z,7.60
2018-06-03T01:31:16.956Z,7.43
2018-06-03T01:33:45.360Z,8.33
2018-06-03T01:36:13.587Z,7.30
2018-06-03T01:38:42.016Z,7.80
2018-06-03T01:41:10.368Z,8.03
2018-06-03T01:43:38.770Z,8.97
2018-06-03T01:46:07.043Z,8.43
2018-06-03T01:48:35.324Z,8.63
2018-06-03T01:51:03.700Z,9.83
2018-06-03T01:53:32.181Z,9.70
2018-06-03T01:56:00.453Z,9.10
2018-06-03T01:58:28.832Z,10.10
2018-06-03T02:00:57.110Z,10.23
2018-06-03T02:03:25.385Z,9.97
2018-06-03T02:05:53.745Z,10.93
2018-06-03T02:08:21.974Z,11.27
2018-06-03T02:10:50.314Z,10.53
2018-06-03T02:13:18.561Z,11.10
2018-06-03T02:15:46.865Z,10.60
2018-06-03T02:18:15.349Z,11.40
2018-06-03T02:20:43.603Z,10.37
2018-06-03T02:23:12.000Z,10.37
2018-06-03T02:25:40.380Z,10.17
2018-06-03T02:28:08.602Z,9.83
2018-06-03T02:30:36.859Z,9.63
2018-06-03T02:33:05.209Z,9.60
2018-06-03T02:35:33.555Z,9.63
2018-06-03T02:38:01.783Z,9.20
2018-06-03T02:40:30.136Z,9.37
2018-06-03T02:42:58.517Z,9.33
2018-06-03T02:45:26.858Z,9.03
2018-06-03T02:47:55.171Z,9.70
2018-06-03T02:50:23.445Z,10.53
2018-06-03T02:52:51.922Z,10.27
2018-06-03T02:55:20.229Z,11.27
2018-06-03T02:57:48.551Z,11.97
2018-06-03T03:00:38.237Z,11.03
2018-06-03T03:03:19.108Z,10.97
2018-06-03T03:05:47.372Z,10.57
2018-06-03T03:08:15.826Z,11.23
2018-06-03T03:10:44.159Z,10.07
2018-06-03T03:13:12.432Z,10.20
2018-06-03T03:15:40.789Z,10.43
2018-06-03T03:18:09.084Z,11.20
2018-06-03T03:20:37.465Z,10.87
2018-06-03T03:23:05.822Z,10.20
2018-06-03T03:25:34.224Z,10.93
2018-06-03T03:28:02.577Z,10.60
2018-06-03T03:30:30.980Z,11.00
2018-06-03T03:32:59.341Z,10.20
2018-06-03T03:35:27.629Z,10.90
2018-06-03T03:37:55.912Z,11.47
2018-06-03T03:40:24.155Z,10.97
2018-06-03T03:42:52.436Z,10.43
2018-06-03T03:45:20.739Z,10.87
2018-06-03T03:47:48.970Z,11.33
2018-06-03T03:50:17.269Z,11.87
2018-06-03T03:52:45.769Z,11.33
2018-06-03T03:55:14.038Z,11.63
2018-06-03T03:57:42.395Z,11.33
2018-06-03T04:00:10.801Z,11.93
2018-06-03T04:02:39.176Z,12.10
2018-06-03T04:05:07.406Z,11.67
2018-06-03T04:07:35.727Z,12.03
2018-06-03T04:10:04.213Z,11.40
2018-06-03T04:12:32.463Z,14.53
2018-06-03T04:15:00.865Z,16.83
2018-06-03T04:17:29.218Z,21.77
2018-06-03T04:19:57.471Z,20.87
2018-06-03T04:22:25.725Z,18.83
2018-06-03T04:24:53.948Z,16.50
2018-06-03T04:27:22.186Z,15.27
2018-06-03T04:29:50.439Z,14.47
2018-06-03T04:32:18.677Z,14.77
2018-06-03T04:34:47.083Z,14.10
2018-06-03T04:37:15.337Z,14.07
2018-06-03T04:39:43.722Z,15.57
2018-06-03T04:42:12.103Z,14.70
2018-06-03T04:44:40.467Z,15.07
2018-06-03T04:47:08.760Z,16.07
2018-06-03T04:49:37.237Z,17.97
2018-06-03T04:52:05.479Z,15.97
2018-06-03T04:54:33.790Z,15.17
2018-06-03T04:57:02.143Z,15.33
2018-06-03T04:59:30.410Z,14.40
2018-06-03T05:01:58.718Z,13.80
2018-06-03T05:04:26.939Z,12.77
2018-06-03T05:06:55.255Z,11.77
2018-06-03T05:09:23.648Z,12.17
2018-06-03T05:11:51.999Z,12.23
2018-06-03T05:14:20.311Z,11.67
2018-06-03T05:16:48.576Z,12.73
2018-06-03T05:19:16.952Z,13.90
2018-06-03T05:21:45.228Z,14.00
2018-06-03T05:24:13.607Z,14.03
2018-06-03T05:26:41.971Z,15.70
2018-06-03T05:29:10.264Z,16.77
2018-06-03T05:31:38.642Z,18.37
2018-06-03T05:34:06.989Z,16.97
2018-06-03T05:36:35.267Z,16.10
2018-06-03T05:39:03.674Z,15.00
2018-06-03T05:41:32.031Z,14.07
2018-06-03T05:44:00.414Z,12.93
2018-06-03T05:46:28.779Z,12.63
2018-06-03T05:48:57.087Z,11.40
2018-06-03T05:51:25.367Z,20.50
2018-06-03T05:53:53.610Z,22.27
2018-06-03T05:56:21.979Z,16.40
2018-06-03T05:58:50.288Z,11.80
2018-06-03T06:01:18.546Z,14.33
2018-06-03T06:03:46.845Z,11.97
2018-06-03T06:06:15.219Z,10.53
2018-06-03T06:08:43.571Z,10.07
2018-06-03T06:11:11.846Z,9.40
2018-06-03T06:13:40.054Z,8.97
2018-06-03T06:16:08.423Z,9.60
2018-06-03T06:18:36.799Z,10.70
2018-06-03T06:21:05.044Z,9.37
2018-06-03T06:23:33.326Z,7.87
2018-06-03T06:26:01.599Z,7.03
2018-06-03T06:28:29.913Z,7.77
2018-06-03T06:30:58.277Z,12.83
2018-06-03T06:33:29.707Z,8.40
2018-06-03T06:35:58.213Z,7.97
2018-06-03T06:38:26.488Z,6.30
2018-06-03T06:40:54.760Z,6.53
2018-06-03T06:43:23.141Z,6.47
2018-06-03T06:45:51.521Z,5.87
2018-06-03T06:48:19.799Z,7.73
2018-06-03T06:50:48.153Z,7.83
2018-06-03T06:53:16.430Z,7.03
2018-06-03T06:55:44.831Z,5.07
2018-06-03T06:58:13.184Z,4.87
2018-06-03T07:00:41.404Z,5.30
2018-06-03T07:03:09.735Z,5.77
2018-06-03T07:05:38.016Z,5.27
2018-06-03T07:08:06.495Z,5.43
2018-06-03T07:10:34.796Z,5.30
2018-06-03T07:13:03.181Z,6.00
2018-06-03T07:15:31.551Z,4.83
2018-06-03T07:17:59.804Z,5.93
2018-06-03T07:20:28.105Z,5.60
2018-06-03T07:22:56.489Z,4.63
2018-06-03T07:25:24.764Z,4.63
2018-06-03T07:27:53.008Z,5.13
2018-06-03T07:30:21.309Z,4.20
2018-06-03T07:32:49.567Z,4.30
2018-06-03T07:35:17.836Z,3.53
2018-06-03T07:37:46.137Z,3.77
2018-06-03T07:40:14.519Z,3.83
2018-06-03T07:42:43.863Z,4.47
2018-06-03T07:45:12.235Z,4.30
2018-06-03T07:47:40.573Z,12.73
2018-06-03T07:50:08.850Z,5.73
2018-06-03T07:52:37.114Z,3.30
2018-06-03T07:55:05.404Z,3.83
2018-06-03T07:57:33.656Z,4.47
2018-06-03T08:00:01.871Z,4.80
2018-06-03T08:02:30.131Z,4.50
2018-06-03T08:04:58.910Z,4.33
2018-06-03T08:07:27.260Z,5.33
2018-06-03T08:09:55.561Z,4.90
2018-06-03T08:12:23.790Z,4.27
2018-06-03T08:14:52.188Z,4.27
2018-06-03T08:17:20.599Z,4.03
2018-06-03T08:19:48.973Z,5.73
2018-06-03T08:22:17.250Z,3.90
2018-06-03T08:24:45.506Z,4.30
2018-06-03T08:27:13.801Z,4.33
2018-06-03T08:29:42.180Z,4.20
2018-06-03T08:32:10.452Z,5.70
2018-06-03T08:34:38.754Z,4.07
2018-06-03T08:37:07.105Z,4.77
2018-06-03T08:39:35.487Z,4.80
2018-06-03T08:42:03.864Z,3.93
2018-06-03T08:44:32.140Z,5.37
2018-06-03T08:47:00.390Z,3.93
2018-06-03T08:49:28.689Z,4.40
2018-06-03T08:51:57.047Z,4.47
2018-06-03T08:54:25.447Z,4.60
2018-06-03T08:56:53.927Z,3.97
2018-06-03T08:59:22.303Z,5.43
2018-06-03T09:01:50.539Z,4.70
2018-06-03T09:04:18.767Z,4.17
2018-06-03T09:06:47.028Z,5.13
2018-06-03T09:09:15.259Z,3.93
2018-06-03T09:11:43.571Z,4.50
2018-06-03T09:14:11.822Z,4.77
2018-06-03T09:16:40.048Z,6.17
2018-06-03T09:19:08.379Z,4.07
2018-06-03T09:21:36.706Z,4.10
2018-06-03T09:24:05.037Z,4.00
2018-06-03T09:26:33.309Z,4.47
2018-06-03T09:29:01.587Z,4.80
2018-06-03T09:31:29.989Z,4.40
2018-06-03T09:33:58.205Z,4.20
2018-06-03T09:36:26.541Z,4.03
2018-06-03T09:38:54.923Z,4.20
2018-06-03T09:41:23.194Z,3.90
2018-06-03T09:43:51.575Z,4.17
2018-06-03T09:46:19.823Z,4.27
2018-06-03T09:48:48.043Z,4.30
2018-06-03T09:51:16.269Z,4.67
2018-06-03T09:53:44.572Z,4.83
2018-06-03T09:56:12.785Z,4.87
2018-06-03T09:58:41.098Z,4.77
2018-06-03T10:01:09.505Z,4.37
2018-06-03T10:03:38.808Z,3.67
2018-06-03T10:06:07.263Z,4.30
2018-06-03T10:08:35.639Z,3.90
2018-06-03T10:11:04.142Z,5.30
2018-06-03T10:13:32.526Z,3.93
2018-06-03T10:16:00.899Z,5.73
2018-06-03T10:18:29.253Z,4.43
2018-06-03T10:20:57.552Z,4.20
2018-06-03T10:23:25.937Z,4.20
2018-06-03T10:25:54.394Z,4.43
2018-06-03T10:28:22.804Z,4.30
2018-06-03T10:30:51.165Z,4.30
2018-06-03T10:33:19.398Z,4.23
2018-06-03T10:35:47.597Z,4.10
2018-06-03T10:38:15.892Z,11.33
2018-06-03T10:40:44.273Z,4.93
2018-06-03T10:43:12.546Z,4.20
2018-06-03T10:45:41.128Z,4.27
2018-06-03T10:48:10.067Z,4.47
2018-06-03T10:50:38.404Z,4.80
2018-06-03T10:53:06.676Z,4.03
2018-06-03T10:55:35.055Z,3.73
2018-06-03T10:58:03.433Z,4.10
2018-06-03T11:00:31.678Z,4.40
2018-06-03T11:02:59.918Z,3.77
2018-06-03T11:05:28.256Z,4.07
2018-06-03T11:07:56.533Z,5.00
2018-06-03T11:10:24.782Z,4.40
2018-06-03T11:13:00.048Z,4.30
2018-06-03T11:15:28.752Z,4.60
2018-06-03T11:17:57.114Z,3.83
2018-06-03T11:20:25.532Z,4.37
2018-06-03T11:22:53.869Z,4.27
2018-06-03T11:25:22.210Z,5.00
2018-06-03T11:27:50.438Z,4.80
2018-06-03T11:30:18.800Z,4.43
2018-06-03T11:32:47.129Z,3.70
2018-06-03T11:35:15.553Z,4.83
2018-06-03T11:37:43.831Z,4.70
2018-06-03T11:40:12.212Z,3.90
2018-06-03T11:42:40.585Z,4.90
2018-06-03T11:45:08.963Z,4.50
2018-06-03T11:47:37.319Z,4.33
2018-06-03T11:50:05.620Z,4.40
2018-06-03T11:52:33.897Z,4.00
2018-06-03T11:55:02.244Z,4.30
2018-06-03T11:57:36.692Z,4.37
2018-06-03T12:00:04.970Z,4.70
2018-06-03T12:02:33.201Z,4.37
2018-06-03T12:05:01.441Z,4.33
2018-06-03T12:07:29.762Z,4.70
2018-06-03T12:09:58.070Z,4.07
2018-06-03T12:12:26.423Z,4.23
2018-06-03T12:14:54.647Z,3.97
2018-06-03T12:17:22.911Z,5.30
2018-06-03T12:19:51.317Z,4.67
2018-06-03T12:22:19.660Z,4.70
2018-06-03T12:24:48.008Z,5.20
2018-06-03T12:27:16.246Z,4.07
2018-06-03T12:29:44.565Z,4.33
2018-06-03T12:32:12.774Z,5.00
2018-06-03T12:34:41.241Z,4.57
2018-06-03T12:37:09.459Z,4.67
2018-06-03T12:39:37.789Z,4.77
2018-06-03T12:42:06.070Z,5.23
2018-06-03T12:44:34.419Z,5.10
2018-06-03T12:47:02.722Z,5.20
2018-06-03T12:49:31.098Z,4.23
2018-06-03T12:51:59.348Z,4.63
2018-06-03T12:54:27.658Z,4.90
2018-06-03T12:56:56.105Z,4.43
2018-06-03T12:59:24.384Z,4.63
2018-06-03T13:01:52.760Z,4.50
2018-06-03T13:04:21.026Z,4.80
2018-06-03T13:06:49.267Z,4.33
2018-06-03T13:09:17.521Z,4.20
2018-06-03T13:11:45.862Z,4.43
2018-06-03T13:14:14.132Z,4.10
2018-06-03T13:16:42.411Z,4.43
2018-06-03T13:19:10.643Z,4.03
2018-06-03T13:21:38.890Z,4.57
2018-06-03T13:24:07.268Z,4.50
2018-06-03T13:26:35.644Z,4.43
2018-06-03T13:29:04.020Z,5.00
2018-06-03T13:31:32.271Z,4.13
2018-06-03T13:34:00.575Z,3.07
2018-06-03T13:36:28.878Z,3.33
2018-06-03T13:38:57.128Z,2.60
2018-06-03T13:41:25.478Z,2.60
2018-06-03T13:43:53.985Z,3.00
2018-06-03T13:46:22.361Z,3.50
2018-06-03T13:48:50.637Z,3.80
2018-06-03T13:51:18.920Z,3.80
2018-06-03T13:53:47.268Z,2.90
2018-06-03T13:56:15.499Z,3.40
2018-06-03T13:58:43.726Z,3.60
2018-06-03T14:01:11.982Z,3.60
2018-06-03T14:03:40.201Z,3.50
2018-06-03T14:06:08.570Z,3.20
2018-06-03T14:08:36.945Z,2.97
2018-06-03T14:11:05.171Z,3.50
2018-06-03T14:13:33.472Z,2.43
2018-06-03T14:16:01.774Z,3.27
2018-06-03T14:18:30.161Z,2.87
2018-06-03T14:20:58.528Z,3.10
2018-06-03T14:23:27.009Z,2.70
2018-06-03T14:25:55.698Z,2.43
2018-06-03T14:28:50.896Z,3.27
2018-06-03T14:31:19.284Z,3.90
2018-06-03T14:33:47.556Z,3.40
2018-06-03T14:36:15.939Z,3.97
2018-06-03T14:38:44.315Z,2.77
2018-06-03T14:41:12.998Z,2.30
2018-06-03T14:43:41.379Z,2.50
2018-06-03T14:46:09.870Z,2.90
2018-06-03T14:48:38.207Z,2.80
2018-06-03T14:51:06.616Z,3.00
2018-06-03T14:53:34.858Z,3.20
2018-06-03T14:56:03.267Z,2.93
2018-06-03T14:58:31.606Z,2.40
2018-06-03T15:00:59.977Z,2.93
2018-06-03T15:03:28.458Z,3.33
2018-06-03T15:05:56.845Z,2.10
2018-06-03T15:08:24.945Z,3.00
2018-06-03T15:10:53.227Z,2.70
2018-06-03T15:13:21.637Z,3.00
2018-06-03T15:15:49.934Z,2.63
2018-06-03T15:18:18.307Z,2.40
2018-06-03T15:20:46.730Z,2.50
2018-06-03T15:23:15.094Z,3.00
2018-06-03T15:25:43.356Z,2.63
2018-06-03T15:28:11.608Z,3.13
2018-06-03T15:30:39.811Z,3.03
2018-06-03T15:33:08.221Z,2.37
2018-06-03T15:35:36.549Z,2.87
2018-06-03T15:38:05.087Z,2.63
2018-06-03T15:40:33.414Z,2.10
2018-06-03T15:43:01.955Z,2.50
2018-06-03T15:45:30.538Z,2.93
2018-06-03T15:47:58.896Z,3.07
2018-06-03T15:50:27.291Z,3.00
2018-06-03T15:52:55.561Z,2.67
2018-06-03T15:55:24.051Z,2.93
2018-06-03T15:57:52.537Z,2.50
2018-06-03T16:00:20.915Z,2.90
2018-06-03T16:02:49.294Z,2.80
2018-06-03T16:05:17.673Z,2.33
2018-06-03T16:07:45.941Z,3.10
2018-06-03T16:10:14.266Z,2.80
2018-06-03T16:12:42.586Z,3.07
2018-06-03T16:15:10.965Z,2.83
2018-06-03T16:17:39.145Z,2.90
2018-06-03T16:20:07.538Z,2.93
2018-06-03T16:22:35.919Z,3.03
2018-06-03T16:25:04.198Z,3.17
2018-06-03T16:27:32.640Z,2.90
2018-06-03T16:30:00.900Z,3.47
2018-06-03T16:32:29.287Z,3.20
2018-06-03T16:34:57.586Z,3.40
2018-06-03T16:37:25.967Z,3.67
2018-06-03T16:39:54.091Z,3.80
2018-06-03T16:42:22.410Z,3.30
2018-06-03T16:44:50.682Z,2.87
2018-06-03T16:47:18.950Z,3.00
2018-06-03T16:49:47.226Z,2.87
2018-06-03T16:52:15.487Z,3.20
2018-06-03T16:54:43.996Z,3.00
2018-06-03T16:57:12.340Z,3.30
2018-06-03T16:59:40.749Z,3.33
2018-06-03T17:02:09.149Z,3.90
2018-06-03T17:04:37.279Z,3.60
2018-06-03T17:07:05.758Z,3.33
2018-06-03T17:09:34.053Z,3.97
2018-06-03T17:12:02.330Z,3.97
2018-06-03T17:14:30.629Z,3.43
2018-06-03T17:16:58.988Z,3.83
2018-06-03T17:19:27.265Z,3.30
2018-06-03T17:21:55.639Z,2.90
2018-06-03T17:24:23.980Z,2.83
2018-06-03T17:26:52.165Z,3.70
2018-06-03T17:29:20.439Z,3.37
2018-06-03T17:31:48.849Z,2.90
2018-06-03T17:34:17.068Z,3.13
2018-06-03T17:36:45.815Z,3.77
2018-06-03T17:39:14.182Z,3.20
2018-06-03T17:41:42.565Z,3.60
2018-06-03T17:44:10.775Z,3.63
2018-06-03T17:46:39.078Z,3.10
2018-06-03T17:49:07.355Z,3.40
2018-06-03T17:51:35.472Z,3.23
2018-06-03T17:54:03.912Z,3.00
2018-06-03T17:56:32.214Z,3.33
2018-06-03T17:59:00.555Z,3.73
2018-06-03T18:01:28.906Z,3.60
2018-06-03T18:03:57.246Z,3.60
2018-06-03T18:06:25.595Z,3.30
2018-06-03T18:08:53.742Z,3.00
2018-06-03T18:11:22.086Z,3.60
2018-06-03T18:13:50.558Z,3.23
2018-06-03T18:16:18.930Z,2.77
2018-06-03T18:18:47.104Z,3.17
2018-06-03T18:21:15.561Z,3.03
2018-06-03T18:23:43.936Z,3.30
2018-06-03T18:26:12.237Z,3.30
2018-06-03T18:28:40.487Z,3.33
2018-06-03T18:31:08.866Z,3.03
2018-06-03T18:33:37.277Z,3.13
2018-06-03T18:36:05.738Z,3.17
2018-06-03T18:38:34.025Z,2.90
2018-06-03T18:41:02.532Z,3.03
2018-06-03T18:43:30.963Z,3.70
2018-06-03T18:45:59.217Z,3.97
2018-06-03T18:48:27.438Z,4.63
2018-06-03T18:50:55.782Z,3.73
2018-06-03T18:53:24.040Z,4.03
2018-06-03T18:55:52.262Z,3.90
2018-06-03T18:58:20.715Z,5.73
2018-06-03T19:00:48.992Z,5.33
2018-06-03T19:03:17.245Z,5.40
2018-06-03T19:05:45.443Z,7.40
2018-06-03T19:08:13.995Z,8.43
2018-06-03T19:10:42.287Z,8.77
2018-06-03T19:13:10.646Z,12.60
2018-06-03T19:15:38.963Z,16.67
2018-06-03T19:18:07.250Z,9.40
2018-06-03T19:20:35.611Z,10.13
2018-06-03T19:23:04.004Z,8.33
2018-06-03T19:25:32.467Z,7.33
2018-06-03T19:28:00.973Z,8.83
2018-06-03T19:30:29.253Z,9.60
2018-06-03T19:32:57.937Z,7.70
2018-06-03T19:35:26.217Z,9.07
2018-06-03T19:37:54.556Z,10.43
2018-06-03T19:40:22.839Z,9.33
2018-06-03T19:42:51.083Z,8.60
2018-06-03T19:45:19.415Z,8.60
2018-06-03T19:47:47.771Z,8.40
2018-06-03T19:50:16.071Z,7.93
2018-06-03T19:52:44.530Z,9.47
2018-06-03T19:55:12.861Z,8.77
2018-06-03T19:57:41.167Z,8.40
2018-06-03T20:00:09.589Z,8.47
2018-06-03T20:02:37.836Z,8.60
2018-06-03T20:05:06.112Z,9.63
2018-06-03T20:07:34.409Z,9.40
2018-06-03T20:10:02.790Z,10.00
2018-06-03T20:12:31.142Z,9.07
2018-06-03T20:14:59.394Z,9.00
2018-06-03T20:17:28.642Z,7.83
2018-06-03T20:19:56.951Z,8.10
2018-06-03T20:22:25.248Z,7.90
2018-06-03T20:24:53.529Z,7.80
2018-06-03T20:27:21.946Z,7.47
2018-06-03T20:29:50.226Z,6.87
2018-06-03T20:32:18.630Z,7.00
2018-06-03T20:34:46.965Z,7.20
2018-06-03T20:37:15.196Z,7.37
2018-06-03T20:39:43.508Z,7.27
2018-06-03T20:42:11.755Z,7.47
2018-06-03T20:44:40.101Z,8.17
2018-06-03T20:47:08.420Z,8.13
2018-06-03T20:49:36.712Z,7.70
2018-06-03T20:52:04.880Z,8.07
2018-06-03T20:54:33.287Z,7.97
2018-06-03T20:57:01.768Z,8.60
2018-06-03T20:59:30.248Z,7.03
2018-06-03T21:01:58.721Z,7.30
2018-06-03T21:04:27.083Z,6.80
2018-06-03T21:06:55.391Z,6.23
2018-06-03T21:09:23.523Z,5.67
2018-06-03T21:11:51.778Z,5.87
2018-06-03T21:14:20.062Z,6.20
2018-06-03T21:16:48.472Z,5.27
2018-06-03T21:19:16.766Z,5.77
2018-06-03T21:21:44.974Z,5.20
2018-06-03T21:24:13.213Z,5.03
2018-06-03T21:26:41.448Z,5.70
2018-06-03T21:29:09.695Z,6.20
2018-06-03T21:31:38.015Z,6.00
2018-06-03T21:34:06.296Z,7.70
2018-06-03T21:36:34.593Z,8.00
2018-06-03T21:39:02.969Z,6.63
2018-06-03T21:41:31.199Z,8.43
2018-06-03T21:43:59.512Z,7.93
2018-06-03T21:46:28.083Z,7.97
2018-06-03T21:48:56.341Z,9.07
2018-06-03T21:51:24.627Z,7.60
2018-06-03T21:53:53.013Z,7.60
2018-06-03T21:56:21.408Z,8.07
2018-06-03T21:58:49.788Z,6.37
2018-06-03T22:01:18.042Z,6.60
2018-06-03T22:03:46.438Z,6.90
2018-06-03T22:06:14.607Z,6.13
2018-06-03T22:08:42.892Z,5.30
2018-06-03T22:11:11.371Z,5.40
2018-06-03T22:13:39.731Z,5.40
2018-06-03T22:16:08.071Z,5.60
2018-06-03T22:18:36.512Z,6.27
2018-06-03T22:21:04.847Z,5.30
2018-06-03T22:23:33.135Z,5.47
2018-06-03T22:26:01.735Z,5.50
2018-06-03T22:28:30.228Z,5.60
2018-06-03T22:30:58.543Z,5.40
2018-06-03T22:33:26.760Z,6.07
2018-06-03T22:35:55.256Z,5.37
2018-06-03T22:38:23.526Z,5.30
2018-06-03T22:40:52.403Z,5.80
2018-06-03T22:43:20.669Z,5.90
2018-06-03T22:45:49.281Z,5.60
2018-06-03T22:48:17.522Z,5.40
2018-06-03T22:50:45.845Z,5.40
2018-06-03T22:53:14.247Z,5.70
2018-06-03T22:55:42.568Z,5.10
2018-06-03T22:58:10.953Z,5.50
2018-06-03T23:00:39.223Z,5.77
2018-06-03T23:03:12.753Z,5.47
2018-06-03T23:05:41.097Z,5.50
2018-06-03T23:08:09.244Z,5.10
2018-06-03T23:10:37.503Z,5.20
2018-06-03T23:13:06.052Z,5.43
2018-06-03T23:15:34.323Z,5.13
2018-06-03T23:18:02.786Z,5.60
2018-06-03T23:20:31.001Z,6.40
2018-06-03T23:22:59.321Z,6.13
2018-06-03T23:25:27.507Z,6.20
2018-06-03T23:27:55.785Z,6.10
2018-06-03T23:30:24.183Z,6.50
2018-06-03T23:32:52.535Z,7.30
2018-06-03T23:35:20.841Z,6.93
2018-06-03T23:37:49.298Z,6.63
2018-06-03T23:40:17.799Z,6.40
2018-06-03T23:42:46.281Z,6.70
2018-06-03T23:45:14.663Z,5.87
2018-06-03T23:47:43.016Z,6.70
2018-06-03T23:50:11.294Z,6.53
2018-06-03T23:52:39.588Z,6.77
2018-06-03T23:55:07.850Z,6.97
2018-06-03T23:57:36.241Z,6.50
